Weather at Bassett Field [CLOSED]

Public forecast

Using degrees Fahrenheit for public forecast. Weather courtesy of forecast.io.

Closest aviation weather report (METAR) to Bassett Field

Closest report is Niagara Falls International Airport, 8.1 nm (14.9 km) WSW.

2024/05/24 18:53 (retrieved 49 minutes ago)

KIAG 241853Z 24009G18KT 10SM BKN070 26/11 A2987 RMK AO2 SLP113 T02610106

Closest aviation forecast (TAF) to Bassett Field

Closest forecast is Niagara Falls International Airport, 8.1 nm (14.9 km) WSW.

2024/05/24 18:36 (retrieved 1 hour ago)

TAF KIAG 241734Z 2418/2518 24010KT P6SM SKC FM250000 VRB03KT P6SM SKC FM250800 10007KT P6SM FEW250 FM251200 22013G21KT P6SM BKN200 FM251500 25013KT P6SM VCSH BKN060